createdAt,value
2016-02-14T00:00:09.274Z,-9.12
2016-02-14T00:00:22.555Z,-9.15
2016-02-14T00:00:36.055Z,-9.08
2016-02-14T00:00:49.338Z,-9.08
2016-02-14T00:01:02.604Z,-9.15
2016-02-14T00:01:15.885Z,-9.06
2016-02-14T00:01:29.166Z,-9.12
2016-02-14T00:01:42.435Z,-9.12
2016-02-14T00:01:55.997Z,-9.15
2016-02-14T00:02:09.326Z,-9.12
2016-02-14T00:02:22.638Z,-9.12
2016-02-14T00:02:35.982Z,-9.13
2016-02-14T00:02:49.266Z,-9.22
2016-02-14T00:03:02.547Z,-9.27
2016-02-14T00:03:15.860Z,-9.29
2016-02-14T00:03:29.188Z,-9.16
2016-02-14T00:03:42.502Z,-9.2
2016-02-14T00:03:55.799Z,-9.26
2016-02-14T00:04:09.143Z,-9.27
2016-02-14T00:04:22.409Z,-9.27
2016-02-14T00:04:35.706Z,-9.22
2016-02-14T00:04:49.084Z,-9.26
2016-02-14T00:05:02.427Z,-9.31
2016-02-14T00:05:15.709Z,-9.27
2016-02-14T00:05:28.974Z,-9.23
2016-02-14T00:05:42.258Z,-9.13
2016-02-14T00:05:55.571Z,-9.16
2016-02-14T00:06:09.399Z,-9.23
2016-02-14T00:06:22.665Z,-9.16
2016-02-14T00:06:35.962Z,-9.26
2016-02-14T00:06:49.292Z,-9.25
2016-02-14T00:07:02.604Z,-9.16
2016-02-14T00:07:16.073Z,-9.26
2016-02-14T00:07:29.370Z,-9.27
2016-02-14T00:07:42.670Z,-9.26
2016-02-14T00:07:55.935Z,-9.27
2016-02-14T00:08:09.248Z,-9.22
2016-02-14T00:08:22.404Z,-9.26
2016-02-14T00:08:35.670Z,-9.23
2016-02-14T00:08:48.954Z,-9.23
2016-02-14T00:09:02.251Z,-9.23
2016-02-14T00:09:15.782Z,-9.22
2016-02-14T00:09:29.048Z,-9.26
2016-02-14T00:09:42.332Z,-9.2
2016-02-14T00:09:55.644Z,-9.19
2016-02-14T00:10:08.926Z,-9.25
2016-02-14T00:10:22.191Z,-9.26
2016-02-14T00:10:35.504Z,-9.25
2016-02-14T00:10:48.804Z,-9.22
2016-02-14T00:11:02.132Z,-9.2
2016-02-14T00:11:15.632Z,-9.25
2016-02-14T00:11:28.913Z,-9.2
2016-02-14T00:11:42.196Z,-9.25
2016-02-14T00:11:55.478Z,-9.25
2016-02-14T00:12:08.743Z,-9.26
2016-02-14T00:12:22.071Z,-9.27
2016-02-14T00:12:35.587Z,-9.25
2016-02-14T00:12:48.870Z,-9.25
2016-02-14T00:13:02.214Z,-9.25
2016-02-14T00:13:15.511Z,-9.29
2016-02-14T00:13:28.808Z,-9.22
2016-02-14T00:13:42.109Z,-9.25
2016-02-14T00:13:55.390Z,-9.25
2016-02-14T00:14:08.562Z,-9.27
2016-02-14T00:14:21.812Z,-9.2
2016-02-14T00:14:35.093Z,-9.26
2016-02-14T00:14:48.392Z,-9.26
2016-02-14T00:15:01.689Z,-9.34
2016-02-14T00:15:14.970Z,-9.25
2016-02-14T00:15:28.251Z,-9.22
2016-02-14T00:15:41.550Z,-9.22
2016-02-14T00:15:54.847Z,-9.23
2016-02-14T00:16:08.113Z,-9.26
2016-02-14T00:16:21.425Z,-9.27
2016-02-14T00:16:34.738Z,-9.26
2016-02-14T00:16:48.070Z,-9.23
2016-02-14T00:17:01.570Z,-9.4
2016-02-14T00:17:14.867Z,-9.41
2016-02-14T00:17:28.179Z,-9.33
2016-02-14T00:17:41.462Z,-9.26
2016-02-14T00:17:54.744Z,-9.29
2016-02-14T00:18:08.087Z,-9.36
2016-02-14T00:18:21.369Z,-9.29
2016-02-14T00:18:34.931Z,-9.29
2016-02-14T00:18:48.215Z,-9.4
2016-02-14T00:19:01.559Z,-9.27
2016-02-14T00:19:15.043Z,-9.36
2016-02-14T00:19:28.356Z,-9.36
2016-02-14T00:19:41.655Z,-9.37
2016-02-14T00:19:55.045Z,-9.37
2016-02-14T00:20:08.342Z,-9.26
2016-02-14T00:20:21.608Z,-9.36
2016-02-14T00:20:34.936Z,-9.36
2016-02-14T00:20:48.252Z,-9.27
2016-02-14T00:21:01.548Z,-9.23
2016-02-14T00:21:14.830Z,-9.25
2016-02-14T00:21:28.173Z,-9.4
2016-02-14T00:21:41.458Z,-9.25
2016-02-14T00:21:54.770Z,-9.4
2016-02-14T00:22:08.067Z,-9.37
2016-02-14T00:22:21.380Z,-9.36
2016-02-14T00:22:34.661Z,-9.34
2016-02-14T00:22:47.976Z,-9.45
2016-02-14T00:23:01.258Z,-9.36
2016-02-14T00:23:14.758Z,-9.34
2016-02-14T00:23:28.039Z,-9.4
2016-02-14T00:23:41.306Z,-9.47
2016-02-14T00:23:54.603Z,-9.36
2016-02-14T00:24:07.885Z,-9.4
2016-02-14T00:24:21.166Z,-9.44
2016-02-14T00:24:34.322Z,-9.4
2016-02-14T00:24:47.605Z,-9.37
2016-02-14T00:25:00.933Z,-9.38
2016-02-14T00:25:14.199Z,-9.37
2016-02-14T00:25:27.480Z,-9.45
2016-02-14T00:25:40.781Z,-9.47
2016-02-14T00:25:54.062Z,-9.4
2016-02-14T00:26:07.359Z,-9.5
2016-02-14T00:26:20.687Z,-9.44
2016-02-14T00:26:33.984Z,-9.41
2016-02-14T00:26:47.283Z,-9.41
2016-02-14T00:27:00.564Z,-9.4
2016-02-14T00:27:13.861Z,-9.47
2016-02-14T00:27:27.439Z,-9.4
2016-02-14T00:27:40.724Z,-9.45
2016-02-14T00:27:54.005Z,-9.44
2016-02-14T00:28:07.286Z,-9.4
2016-02-14T00:28:20.552Z,-9.4
2016-02-14T00:28:33.833Z,-9.44
2016-02-14T00:28:47.352Z,-9.4
2016-02-14T00:29:00.649Z,-9.44
2016-02-14T00:29:13.930Z,-9.45
2016-02-14T00:29:27.227Z,-9.5
2016-02-14T00:29:40.526Z,-9.38
2016-02-14T00:29:53.807Z,-9.4
2016-02-14T00:30:07.088Z,-9.45
2016-02-14T00:30:20.245Z,-9.4
2016-02-14T00:30:33.527Z,-9.45
2016-02-14T00:30:46.518Z,-9.41
2016-02-14T00:30:59.502Z,-9.4
2016-02-14T00:31:12.502Z,-9.41
2016-02-14T00:31:25.739Z,-9.41
2016-02-14T00:31:38.707Z,-9.45
2016-02-14T00:31:52.054Z,-9.4
2016-02-14T00:32:05.382Z,-9.44
2016-02-14T00:32:32.710Z,-9.36
2016-02-14T00:32:46.025Z,-9.38
2016-02-14T00:32:59.306Z,-9.41
2016-02-14T00:33:12.087Z,-9.4
2016-02-14T00:33:25.400Z,-9.37
2016-02-14T00:33:38.697Z,-9.41
2016-02-14T00:33:51.965Z,-9.41
2016-02-14T00:34:05.247Z,-9.41
2016-02-14T00:34:18.543Z,-9.31
2016-02-14T00:34:31.840Z,-9.33
2016-02-14T00:34:45.125Z,-9.38
2016-02-14T00:34:58.625Z,-9.45
2016-02-14T00:35:11.942Z,-9.45
2016-02-14T00:35:25.223Z,-9.41
2016-02-14T00:35:38.536Z,-9.4
2016-02-14T00:35:51.819Z,-9.45
2016-02-14T00:36:05.163Z,-9.4
2016-02-14T00:36:18.631Z,-9.34
2016-02-14T00:36:31.928Z,-9.36
2016-02-14T00:36:45.228Z,-9.41
2016-02-14T00:36:58.556Z,-9.36
2016-02-14T00:37:11.884Z,-9.4
2016-02-14T00:37:25.181Z,-9.4
2016-02-14T00:37:38.509Z,-9.36
2016-02-14T00:37:51.794Z,-9.41
2016-02-14T00:38:05.278Z,-9.4
2016-02-14T00:38:18.622Z,-9.36
2016-02-14T00:38:31.919Z,-9.33
2016-02-14T00:38:45.233Z,-9.4
2016-02-14T00:38:58.499Z,-9.36
2016-02-14T00:39:11.780Z,-9.41
2016-02-14T00:39:25.077Z,-9.33
2016-02-14T00:39:38.358Z,-9.25
2016-02-14T00:39:51.643Z,-9.36
2016-02-14T00:40:04.940Z,-9.41
2016-02-14T00:40:18.222Z,-9.26
2016-02-14T00:40:31.722Z,-9.34
2016-02-14T00:40:44.989Z,-9.4
2016-02-14T00:40:58.317Z,-9.26
2016-02-14T00:41:11.599Z,-9.27
2016-02-14T00:41:24.880Z,-9.37
2016-02-14T00:41:38.161Z,-9.4
2016-02-14T00:41:51.491Z,-9.23
2016-02-14T00:42:04.757Z,-9.41
2016-02-14T00:42:18.069Z,-9.31
2016-02-14T00:42:31.382Z,-9.36
2016-02-14T00:42:44.698Z,-9.33
2016-02-14T00:42:58.214Z,-9.37
2016-02-14T00:43:11.698Z,-9.38
2016-02-14T00:43:24.995Z,-9.36
2016-02-14T00:43:52.435Z,-9.38
2016-02-14T00:44:05.700Z,-9.37
2016-02-14T00:44:18.997Z,-9.38
2016-02-14T00:44:32.528Z,-9.23
2016-02-14T00:44:45.812Z,-9.41
2016-02-14T00:44:59.093Z,-9.27
2016-02-14T00:45:12.405Z,-9.33
2016-02-14T00:45:25.905Z,-9.38
2016-02-14T00:45:39.405Z,-9.37
2016-02-14T00:45:52.690Z,-9.37
2016-02-14T00:46:06.018Z,-9.36
2016-02-14T00:46:19.315Z,-9.38
2016-02-14T00:46:32.596Z,-9.36
2016-02-14T00:46:45.880Z,-9.25
2016-02-14T00:46:59.161Z,-9.33
2016-02-14T00:47:12.474Z,-9.36
2016-02-14T00:47:25.786Z,-9.4
2016-02-14T00:47:39.083Z,-9.4
2016-02-14T00:47:52.351Z,-9.4
2016-02-14T00:48:05.648Z,-9.27
2016-02-14T00:48:18.945Z,-9.33
2016-02-14T00:48:32.242Z,-9.31
2016-02-14T00:48:45.511Z,-9.26
2016-02-14T00:48:58.792Z,-9.26
2016-02-14T00:49:12.074Z,-9.25
2016-02-14T00:49:25.605Z,-9.38
2016-02-14T00:49:38.886Z,-9.36
2016-02-14T00:49:52.169Z,-9.37
2016-02-14T00:50:05.701Z,-9.23
2016-02-14T00:50:18.998Z,-9.36
2016-02-14T00:50:32.263Z,-9.4
2016-02-14T00:50:45.594Z,-9.33
2016-02-14T00:50:58.907Z,-9.27
2016-02-14T00:51:12.204Z,-9.38
2016-02-14T00:51:25.485Z,-9.31
2016-02-14T00:51:38.829Z,-9.41
2016-02-14T00:51:52.363Z,-9.25
2016-02-14T00:52:05.660Z,-9.31
2016-02-14T00:52:18.972Z,-9.31
2016-02-14T00:52:32.269Z,-9.44
2016-02-14T00:52:45.552Z,-9.33
2016-02-14T00:52:58.818Z,-9.37
2016-02-14T00:53:12.131Z,-9.33
2016-02-14T00:53:25.646Z,-9.29
2016-02-14T00:53:38.912Z,-9.34
2016-02-14T00:53:52.211Z,-9.25
2016-02-14T00:54:05.508Z,-9.29
2016-02-14T00:54:18.804Z,-9.41
2016-02-14T00:54:32.086Z,-9.4
2016-02-14T00:54:45.387Z,-9.38
2016-02-14T00:54:58.683Z,-9.34
2016-02-14T00:55:11.965Z,-9.26
2016-02-14T00:55:25.465Z,-9.38
2016-02-14T00:55:38.762Z,-9.38
2016-02-14T00:55:52.076Z,-9.37
2016-02-14T00:56:05.357Z,-9.37
2016-02-14T00:56:18.654Z,-9.34
2016-02-14T00:56:31.935Z,-9.36
2016-02-14T00:56:45.454Z,-9.31
2016-02-14T00:56:58.720Z,-9.38
2016-02-14T00:57:12.032Z,-9.44
2016-02-14T00:57:25.345Z,-9.36
2016-02-14T00:57:38.688Z,-9.38
2016-02-14T00:57:51.957Z,-9.37
2016-02-14T00:58:05.254Z,-9.45
2016-02-14T00:58:18.551Z,-9.38
2016-02-14T00:58:31.879Z,-9.37
2016-02-14T00:58:44.678Z,-9.4
2016-02-14T00:58:57.990Z,-9.47
2016-02-14T00:59:11.303Z,-9.47
2016-02-14T00:59:24.568Z,-9.38
2016-02-14T00:59:37.850Z,-9.4
2016-02-14T01:00:05.290Z,-9.4
2016-02-14T01:00:18.556Z,-9.41
2016-02-14T01:00:31.821Z,-9.41
2016-02-14T01:00:45.121Z,-9.4
2016-02-14T01:00:58.449Z,-9.41
2016-02-14T01:01:11.715Z,-9.41
2016-02-14T01:01:24.996Z,-9.38
2016-02-14T01:01:38.293Z,-9.41
2016-02-14T01:01:51.623Z,-9.44
2016-02-14T01:02:04.905Z,-9.44
2016-02-14T01:02:18.201Z,-9.34
2016-02-14T01:02:31.467Z,-9.4
2016-02-14T01:02:44.783Z,-9.36
2016-02-14T01:02:58.079Z,-9.47
2016-02-14T01:03:11.361Z,-9.37
2016-02-14T01:03:24.626Z,-9.37
2016-02-14T01:03:37.751Z,-9.36
2016-02-14T01:03:51.098Z,-9.37
2016-02-14T01:04:04.379Z,-9.27
2016-02-14T01:04:17.707Z,-9.38
2016-02-14T01:04:31.067Z,-9.2
2016-02-14T01:04:44.272Z,-9.36
2016-02-14T01:04:57.272Z,-9.33
2016-02-14T01:05:10.397Z,-9.26
2016-02-14T01:05:23.553Z,-9.34
2016-02-14T01:05:36.756Z,-9.26
2016-02-14T01:05:50.041Z,-9.27
2016-02-14T01:06:03.322Z,-9.26
2016-02-14T01:06:16.619Z,-9.26
2016-02-14T01:06:30.212Z,-9.27
2016-02-14T01:06:43.481Z,-9.37
2016-02-14T01:06:56.778Z,-9.23
2016-02-14T01:07:10.122Z,-9.27
2016-02-14T01:07:23.450Z,-9.23
2016-02-14T01:07:36.762Z,-9.37
2016-02-14T01:07:50.031Z,-9.23
2016-02-14T01:08:03.593Z,-9.23
2016-02-14T01:08:16.875Z,-9.25
2016-02-14T01:08:30.156Z,-9.26
2016-02-14T01:08:43.439Z,-9.22
2016-02-14T01:08:56.736Z,-9.26
2016-02-14T01:09:10.017Z,-9.25
2016-02-14T01:09:23.299Z,-9.22
2016-02-14T01:09:36.580Z,-9.23
2016-02-14T01:09:49.864Z,-9.23
2016-02-14T01:10:03.161Z,-9.27
2016-02-14T01:10:16.473Z,-9.25
2016-02-14T01:10:29.786Z,-9.29
2016-02-14T01:10:43.069Z,-9.23
2016-02-14T01:10:56.350Z,-9.23
2016-02-14T01:11:09.679Z,-9.2
2016-02-14T01:11:22.991Z,-9.12
2016-02-14T01:11:36.272Z,-9.16
2016-02-14T01:11:49.807Z,-9.16
2016-02-14T01:12:03.103Z,-9.09
2016-02-14T01:12:16.416Z,-9.2
2016-02-14T01:12:29.697Z,-9.15
2016-02-14T01:12:42.825Z,-9.09
2016-02-14T01:12:56.138Z,-9.09
2016-02-14T01:13:09.450Z,-9.09
2016-02-14T01:13:22.747Z,-9.15
2016-02-14T01:13:36.028Z,-9.13
2016-02-14T01:13:49.343Z,-9.09
2016-02-14T01:14:02.624Z,-9.01
2016-02-14T01:14:15.905Z,-9.04
2016-02-14T01:14:29.187Z,-9.08
2016-02-14T01:14:42.503Z,-9.08
2016-02-14T01:14:55.784Z,-8.99
2016-02-14T01:15:08.909Z,-9.08
2016-02-14T01:15:22.206Z,-9.04
2016-02-14T01:15:35.737Z,-8.99
2016-02-14T01:15:49.005Z,-9.01
2016-02-14T01:16:02.286Z,-9.02
2016-02-14T01:16:15.583Z,-9.02
2016-02-14T01:16:28.864Z,-8.99
2016-02-14T01:16:42.180Z,-9.04
2016-02-14T01:16:55.461Z,-9.05
2016-02-14T01:17:08.774Z,-8.99
2016-02-14T01:17:21.914Z,-8.98
2016-02-14T01:17:35.227Z,-8.96
2016-02-14T01:17:48.526Z,-8.95
2016-02-14T01:18:01.916Z,-8.88
2016-02-14T01:18:15.276Z,-8.94
2016-02-14T01:18:55.997Z,-8.88
2016-02-14T01:19:09.326Z,-9.05
2016-02-14T01:19:22.607Z,-9.02
2016-02-14T01:19:35.888Z,-8.98
2016-02-14T01:19:49.157Z,-8.98
2016-02-14T01:20:02.469Z,-8.96
2016-02-14T01:20:15.766Z,-8.9
2016-02-14T01:20:29.032Z,-9.05
2016-02-14T01:20:42.331Z,-9.05
2016-02-14T01:20:58.018Z,-9.04
2016-02-14T01:21:11.299Z,-9.05
2016-02-14T01:21:24.581Z,-8.98
2016-02-14T01:21:37.877Z,-8.99
2016-02-14T01:21:51.224Z,-9.04
2016-02-14T01:22:04.505Z,-9.02
2016-02-14T01:22:18.005Z,-9.02
2016-02-14T01:22:31.318Z,-9.12
2016-02-14T01:22:44.602Z,-9.02
2016-02-14T01:22:57.868Z,-9.04
2016-02-14T01:23:11.180Z,-9.02
2016-02-14T01:23:24.337Z,-9.04
2016-02-14T01:23:37.618Z,-8.99
2016-02-14T01:23:50.902Z,-9.09
2016-02-14T01:24:04.215Z,-9.02
2016-02-14T01:24:17.496Z,-9.06
2016-02-14T01:24:30.777Z,-9.06
2016-02-14T01:24:44.077Z,-9.06
2016-02-14T01:24:57.421Z,-9.08
2016-02-14T01:25:10.796Z,-8.99
2016-02-14T01:25:24.061Z,-9.08
2016-02-14T01:25:51.501Z,-8.99
2016-02-14T01:26:04.798Z,-9.04
2016-02-14T01:26:18.095Z,-9.05
2016-02-14T01:26:31.376Z,-9.01
2016-02-14T01:26:44.675Z,-9.01
2016-02-14T01:26:57.987Z,-9.04
2016-02-14T01:27:11.253Z,-9.05
2016-02-14T01:27:24.534Z,-9.12
2016-02-14T01:27:38.081Z,-9.06
2016-02-14T01:27:51.366Z,-9.06
2016-02-14T01:28:04.694Z,-9.02
2016-02-14T01:28:17.991Z,-8.99
2016-02-14T01:28:31.288Z,-9.02
2016-02-14T01:28:44.556Z,-9.12
2016-02-14T01:28:57.837Z,-9.01
2016-02-14T01:29:11.134Z,-9.08
2016-02-14T01:29:24.415Z,-9.04
2016-02-14T01:29:37.681Z,-9.08
2016-02-14T01:29:50.933Z,-9.06
2016-02-14T01:30:04.230Z,-9.13
2016-02-14T01:30:17.511Z,-9.19
2016-02-14T01:30:30.776Z,-9.12
2016-02-14T01:30:44.061Z,-9.08
2016-02-14T01:30:57.373Z,-9.09
2016-02-14T01:31:10.654Z,-9.13
2016-02-14T01:31:23.951Z,-9.06
2016-02-14T01:31:37.295Z,-9.05
2016-02-14T01:31:50.595Z,-9.09
2016-02-14T01:32:03.861Z,-9.01
2016-02-14T01:32:17.001Z,-9.05
2016-02-14T01:32:30.282Z,-9.08
2016-02-14T01:32:43.441Z,-9.16
2016-02-14T01:32:56.956Z,-9.08
2016-02-14T01:33:10.253Z,-9.04
2016-02-14T01:33:23.409Z,-9.09
2016-02-14T01:33:36.691Z,-9.05
2016-02-14T01:33:50.195Z,-9.04
2016-02-14T01:34:03.492Z,-9.04
2016-02-14T01:34:16.773Z,-8.98
2016-02-14T01:34:30.070Z,-9.02
2016-02-14T01:34:43.415Z,-9.08
2016-02-14T01:34:56.681Z,-9.06
2016-02-14T01:35:09.947Z,-9.04
2016-02-14T01:35:23.244Z,-9.06
2016-02-14T01:35:36.540Z,-9.08
2016-02-14T01:35:50.105Z,-9.02
2016-02-14T01:36:03.386Z,-9.12
2016-02-14T01:36:16.699Z,-9.06
2016-02-14T01:36:29.980Z,-9.12
2016-02-14T01:36:43.281Z,-9.13
2016-02-14T01:36:56.781Z,-9.12
2016-02-14T01:37:10.078Z,-9.09
2016-02-14T01:37:23.375Z,-9.06
2016-02-14T01:37:36.656Z,-9.09
2016-02-14T01:37:49.970Z,-9.09
2016-02-14T01:38:03.298Z,-9.15
2016-02-14T01:38:16.564Z,-9.12
2016-02-14T01:38:29.845Z,-9.08
2016-02-14T01:38:42.644Z,-9.15
2016-02-14T01:38:56.175Z,-9.15
2016-02-14T01:39:09.441Z,-9.16
2016-02-14T01:39:22.722Z,-9.2
2016-02-14T01:39:36.050Z,-9.12
2016-02-14T01:39:49.554Z,-9.19
2016-02-14T01:40:02.820Z,-9.27
2016-02-14T01:40:16.336Z,-9.29
2016-02-14T01:40:29.648Z,-9.29
2016-02-14T01:40:42.916Z,-9.27
2016-02-14T01:40:56.197Z,-9.2
2016-02-14T01:41:09.478Z,-9.26
2016-02-14T01:41:36.931Z,-9.29
2016-02-14T01:41:50.216Z,-9.26
2016-02-14T01:42:03.481Z,-9.23
2016-02-14T01:42:16.794Z,-9.2
2016-02-14T01:42:30.059Z,-9.2
2016-02-14T01:42:43.359Z,-9.25
2016-02-14T01:42:56.641Z,-9.27
2016-02-14T01:43:09.922Z,-9.25
2016-02-14T01:43:23.203Z,-9.25
2016-02-14T01:43:36.500Z,-9.19
2016-02-14T01:43:49.814Z,-9.26
2016-02-14T01:44:03.111Z,-9.22
2016-02-14T01:44:16.689Z,-9.25
2016-02-14T01:44:30.158Z,-9.22
2016-02-14T01:44:43.474Z,-9.31
2016-02-14T01:44:56.771Z,-9.26
2016-02-14T01:45:09.364Z,-9.29
2016-02-14T01:45:22.661Z,-9.34
2016-02-14T01:45:36.005Z,-9.23
2016-02-14T01:45:49.289Z,-9.2
2016-02-14T01:46:02.555Z,-9.26
2016-02-14T01:46:15.867Z,-9.27
2016-02-14T01:46:29.180Z,-9.26
2016-02-14T01:46:42.697Z,-9.25
2016-02-14T01:46:55.979Z,-9.27
2016-02-14T01:47:09.322Z,-9.25
2016-02-14T01:47:22.651Z,-9.26
2016-02-14T01:47:35.776Z,-9.26
2016-02-14T01:47:48.841Z,-9.31
2016-02-14T01:48:02.122Z,-9.26
2016-02-14T01:48:15.419Z,-9.27
2016-02-14T01:48:28.763Z,-9.19
2016-02-14T01:48:42.109Z,-9.29
2016-02-14T01:48:55.390Z,-9.26
2016-02-14T01:49:08.671Z,-9.22
2016-02-14T01:49:21.984Z,-9.25
2016-02-14T01:49:35.312Z,-9.25
2016-02-14T01:49:48.596Z,-9.2
2016-02-14T01:50:01.893Z,-9.27
2016-02-14T01:50:15.190Z,-9.22
2016-02-14T01:50:28.471Z,-9.27
2016-02-14T01:50:41.755Z,-9.26
2016-02-14T01:50:55.083Z,-9.25
2016-02-14T01:51:08.380Z,-9.23
2016-02-14T01:51:21.662Z,-9.26
2016-02-14T01:51:34.943Z,-9.2
2016-02-14T01:51:48.226Z,-9.23
2016-02-14T01:52:01.539Z,-9.27
2016-02-14T01:52:14.820Z,-9.25
2016-02-14T01:52:28.101Z,-9.23
2016-02-14T01:52:41.417Z,-9.31
2016-02-14T01:52:54.729Z,-9.31
2016-02-14T01:53:08.042Z,-9.26
2016-02-14T01:53:21.338Z,-9.25
2016-02-14T01:53:34.651Z,-9.22
2016-02-14T01:53:47.951Z,-9.25
2016-02-14T01:54:01.435Z,-9.23
2016-02-14T01:54:14.763Z,-9.27
2016-02-14T01:54:28.279Z,-9.26
2016-02-14T01:54:41.562Z,-9.25
2016-02-14T01:54:54.859Z,-9.25
2016-02-14T01:55:08.156Z,-9.29
2016-02-14T01:55:21.484Z,-9.26
2016-02-14T01:55:34.765Z,-9.27
2016-02-14T01:55:48.081Z,-9.25
2016-02-14T01:56:01.409Z,-9.2
2016-02-14T01:56:14.675Z,-9.2
2016-02-14T01:56:27.956Z,-9.25
2016-02-14T01:56:41.256Z,-9.31
2016-02-14T01:56:54.537Z,-9.29
2016-02-14T01:57:07.865Z,-9.25
2016-02-14T01:57:21.146Z,-9.23
2016-02-14T01:57:34.459Z,-9.27
2016-02-14T01:57:47.774Z,-9.31
2016-02-14T01:58:01.040Z,-9.26
2016-02-14T01:58:14.306Z,-9.25
2016-02-14T01:58:27.571Z,-9.23
2016-02-14T01:58:40.837Z,-9.27
2016-02-14T01:59:08.262Z,-9.29
2016-02-14T01:59:21.574Z,-9.2
2016-02-14T01:59:34.855Z,-9.22
2016-02-14T01:59:48.124Z,-9.23
2016-02-14T02:00:01.421Z,-9.22
2016-02-14T02:00:14.937Z,-9.23
2016-02-14T02:00:28.249Z,-9.26
2016-02-14T02:00:41.517Z,-9.26
2016-02-14T02:00:54.814Z,-9.26
2016-02-14T02:01:08.126Z,-9.23
2016-02-14T02:01:21.423Z,-9.26
2016-02-14T02:01:34.689Z,-9.23
2016-02-14T02:01:47.973Z,-9.25
2016-02-14T02:02:01.285Z,-9.25
2016-02-14T02:02:14.582Z,-9.26
2016-02-14T02:02:28.098Z,-9.22
2016-02-14T02:02:41.256Z,-9.25
2016-02-14T02:02:54.990Z,-9.25
2016-02-14T02:03:08.303Z,-9.23
2016-02-14T02:03:21.647Z,-9.25
2016-02-14T02:03:34.912Z,-9.25
2016-02-14T02:03:48.228Z,-9.23
2016-02-14T02:04:01.525Z,-9.25
2016-02-14T02:04:14.806Z,-9.31
2016-02-14T02:04:28.072Z,-9.23
2016-02-14T02:04:41.340Z,-9.27
2016-02-14T02:04:54.668Z,-9.25
2016-02-14T02:05:07.965Z,-9.22
2016-02-14T02:05:21.246Z,-9.26
2016-02-14T02:05:34.528Z,-9.26
2016-02-14T02:05:47.858Z,-9.26
2016-02-14T02:06:01.139Z,-9.2
2016-02-14T02:06:14.405Z,-9.19
2016-02-14T02:06:27.717Z,-9.26
2016-02-14T02:06:41.045Z,-9.26
2016-02-14T02:06:54.626Z,-9.29
2016-02-14T02:07:08.048Z,-9.25
2016-02-14T02:07:21.392Z,-9.26
2016-02-14T02:07:34.673Z,-9.26
2016-02-14T02:07:47.958Z,-9.22
2016-02-14T02:08:01.254Z,-9.29
2016-02-14T02:08:14.551Z,-9.31
2016-02-14T02:08:27.879Z,-9.23
2016-02-14T02:08:41.179Z,-9.19
2016-02-14T02:08:54.695Z,-9.25
2016-02-14T02:09:08.007Z,-9.23
2016-02-14T02:09:21.289Z,-9.25
2016-02-14T02:09:34.554Z,-9.26
2016-02-14T02:09:47.884Z,-9.29
2016-02-14T02:10:01.181Z,-9.23
2016-02-14T02:10:14.478Z,-9.29
2016-02-14T02:10:27.791Z,-9.27
2016-02-14T02:10:41.103Z,-9.27
2016-02-14T02:10:54.403Z,-9.27
2016-02-14T02:11:07.981Z,-9.26
2016-02-14T02:11:21.309Z,-9.26
2016-02-14T02:11:34.622Z,-9.25
2016-02-14T02:11:48.327Z,-9.26
2016-02-14T02:12:01.827Z,-9.25
2016-02-14T02:12:15.124Z,-9.25
2016-02-14T02:12:28.421Z,-9.25
2016-02-14T02:12:41.690Z,-9.22
2016-02-14T02:12:55.222Z,-9.22
2016-02-14T02:13:08.550Z,-9.26
2016-02-14T02:13:21.831Z,-9.23
2016-02-14T02:13:35.097Z,-9.27
2016-02-14T02:13:48.395Z,-9.22
2016-02-14T02:14:01.677Z,-9.16
2016-02-14T02:14:14.958Z,-9.25
2016-02-14T02:14:28.286Z,-9.23
2016-02-14T02:14:41.585Z,-9.26
2016-02-14T02:14:54.882Z,-9.25
2016-02-14T02:15:08.163Z,-9.27
2016-02-14T02:15:21.429Z,-9.2
2016-02-14T02:15:34.741Z,-9.27
2016-02-14T02:15:48.041Z,-9.25
2016-02-14T02:16:01.369Z,-9.23
2016-02-14T02:16:14.666Z,-9.29
2016-02-14T02:16:27.963Z,-9.25
2016-02-14T02:16:41.247Z,-9.25
2016-02-14T02:16:54.575Z,-9.2
2016-02-14T02:17:07.857Z,-9.26
2016-02-14T02:17:21.013Z,-9.22
2016-02-14T02:17:33.825Z,-9.27
2016-02-14T02:17:47.141Z,-9.27
2016-02-14T02:18:00.422Z,-9.25
2016-02-14T02:18:13.703Z,-9.22
2016-02-14T02:18:27.016Z,-9.22
2016-02-14T02:18:40.328Z,-9.26
2016-02-14T02:18:53.456Z,-9.25
2016-02-14T02:19:06.722Z,-9.22
2016-02-14T02:19:20.034Z,-9.22
2016-02-14T02:19:33.628Z,-9.29
2016-02-14T02:19:47.146Z,-9.27
2016-02-14T02:20:00.427Z,-9.27
2016-02-14T02:20:13.740Z,-9.26
2016-02-14T02:20:27.005Z,-9.26
2016-02-14T02:20:40.286Z,-9.17
2016-02-14T02:20:53.570Z,-9.19
2016-02-14T02:21:06.867Z,-9.22
2016-02-14T02:21:20.148Z,-9.26
2016-02-14T02:21:33.460Z,-9.16
2016-02-14T02:21:46.746Z,-9.19
2016-02-14T02:21:59.574Z,-9.19
2016-02-14T02:22:12.871Z,-9.29
2016-02-14T02:22:26.167Z,-9.26
2016-02-14T02:22:39.496Z,-9.17
2016-02-14T02:22:52.810Z,-9.22
2016-02-14T02:23:06.091Z,-9.2
2016-02-14T02:23:19.373Z,-9.27
2016-02-14T02:23:46.828Z,-9.23
2016-02-14T02:24:00.078Z,-9.29
2016-02-14T02:24:13.359Z,-9.25
2016-02-14T02:24:26.546Z,-9.25
2016-02-14T02:24:39.843Z,-9.22
2016-02-14T02:24:53.144Z,-9.25
2016-02-14T02:25:06.441Z,-9.31
2016-02-14T02:25:19.785Z,-9.27
2016-02-14T02:25:33.316Z,-9.31
2016-02-14T02:25:46.584Z,-9.23
2016-02-14T02:25:59.881Z,-9.26
2016-02-14T02:26:13.162Z,-9.29
2016-02-14T02:26:26.443Z,-9.26
2016-02-14T02:26:39.709Z,-9.27
2016-02-14T02:27:07.180Z,-9.38
2016-02-14T02:27:20.477Z,-9.4
2016-02-14T02:27:33.977Z,-9.41
2016-02-14T02:27:47.277Z,-9.41
2016-02-14T02:28:00.543Z,-9.27
2016-02-14T02:28:13.808Z,-9.27
2016-02-14T02:28:27.090Z,-9.37
2016-02-14T02:28:40.371Z,-9.37
2016-02-14T02:28:53.857Z,-9.36
2016-02-14T02:29:07.154Z,-9.26
2016-02-14T02:29:20.467Z,-9.4
2016-02-14T02:29:33.764Z,-9.36
2016-02-14T02:29:47.048Z,-9.38
2016-02-14T02:30:14.485Z,-9.22
2016-02-14T02:30:27.798Z,-9.37
2016-02-14T02:30:41.313Z,-9.38
2016-02-14T02:30:54.426Z,-9.4
2016-02-14T02:31:07.723Z,-9.38
2016-02-14T02:31:21.066Z,-9.37
2016-02-14T02:31:34.363Z,-9.38
2016-02-14T02:31:47.647Z,-9.31
2016-02-14T02:32:00.943Z,-9.27
2016-02-14T02:32:14.225Z,-9.29
2016-02-14T02:32:27.537Z,-9.25
2016-02-14T02:32:41.006Z,-9.27
2016-02-14T02:32:54.321Z,-9.25
2016-02-14T02:33:07.618Z,-9.25
2016-02-14T02:33:20.946Z,-9.27
2016-02-14T02:33:34.228Z,-9.19
2016-02-14T02:33:47.496Z,-9.22
2016-02-14T02:34:00.778Z,-9.26
2016-02-14T02:34:14.074Z,-9.29
2016-02-14T02:34:27.356Z,-9.15
2016-02-14T02:34:40.637Z,-9.25
2016-02-14T02:34:54.155Z,-9.29
2016-02-14T02:35:07.451Z,-9.26
2016-02-14T02:35:20.717Z,-9.2
2016-02-14T02:35:34.014Z,-9.19
2016-02-14T02:35:46.798Z,-9.23
2016-02-14T02:36:00.079Z,-9.12
2016-02-14T02:36:13.392Z,-9.27
2016-02-14T02:36:26.720Z,-9.22
2016-02-14T02:36:54.395Z,-9.15
2016-02-14T02:37:07.692Z,-9.27
2016-02-14T02:37:20.957Z,-9.27
2016-02-14T02:37:34.254Z,-9.31
2016-02-14T02:37:47.553Z,-9.29
2016-02-14T02:38:01.100Z,-9.26
2016-02-14T02:38:14.413Z,-9.25
2016-02-14T02:38:27.741Z,-9.25
2016-02-14T02:38:40.897Z,-9.27
2016-02-14T02:38:54.181Z,-9.25
2016-02-14T02:39:07.462Z,-9.25
2016-02-14T02:39:20.775Z,-9.27
2016-02-14T02:39:34.056Z,-9.29
2016-02-14T02:39:47.559Z,-9.29
2016-02-14T02:40:00.825Z,-9.26
2016-02-14T02:40:14.106Z,-9.31
2016-02-14T02:40:27.387Z,-9.27
2016-02-14T02:40:40.700Z,-9.27
2016-02-14T02:40:53.983Z,-9.23
2016-02-14T02:41:07.280Z,-9.23
2016-02-14T02:41:20.577Z,-9.26
2016-02-14T02:41:33.874Z,-9.23
2016-02-14T02:41:47.205Z,-9.25
2016-02-14T02:42:00.470Z,-9.25
2016-02-14T02:42:13.736Z,-9.26
2016-02-14T02:42:26.564Z,-9.34
2016-02-14T02:42:40.095Z,-9.26
2016-02-14T02:42:53.489Z,-9.27
2016-02-14T02:43:06.770Z,-9.31
2016-02-14T02:43:20.098Z,-9.25
2016-02-14T02:43:33.380Z,-9.27
2016-02-14T02:43:46.694Z,-9.25
2016-02-14T02:43:59.975Z,-9.26
2016-02-14T02:44:13.304Z,-9.22
2016-02-14T02:44:26.569Z,-9.25
2016-02-14T02:44:39.882Z,-9.29
2016-02-14T02:44:53.150Z,-9.16
2016-02-14T02:45:06.463Z,-9.22
2016-02-14T02:45:19.744Z,-9.26
2016-02-14T02:45:33.041Z,-9.25
2016-02-14T02:45:46.325Z,-9.13
2016-02-14T02:45:59.622Z,-9.26
2016-02-14T02:46:12.435Z,-9.12
2016-02-14T02:46:25.716Z,-9.29
2016-02-14T02:46:38.997Z,-9.31
2016-02-14T02:46:52.578Z,-9.26
2016-02-14T02:47:05.844Z,-9.29
2016-02-14T02:47:19.125Z,-9.27
2016-02-14T02:47:32.469Z,-9.26
2016-02-14T02:47:45.768Z,-9.19
2016-02-14T02:47:58.908Z,-9.25
2016-02-14T02:48:12.205Z,-9.27
2016-02-14T02:48:25.486Z,-9.15
2016-02-14T02:48:38.752Z,-9.16
2016-02-14T02:48:52.068Z,-9.22
2016-02-14T02:49:05.333Z,-9.13
2016-02-14T02:49:18.177Z,-9.26
2016-02-14T02:49:31.474Z,-9.13
2016-02-14T02:49:45.102Z,-9.2
2016-02-14T02:49:58.367Z,-9.15
2016-02-14T02:50:11.633Z,-9.08
2016-02-14T02:50:24.930Z,-9.16
2016-02-14T02:50:38.211Z,-9.08
2016-02-14T02:50:51.510Z,-9.12
2016-02-14T02:51:04.869Z,-9.17
2016-02-14T02:51:18.166Z,-9.08
2016-02-14T02:51:31.448Z,-9.16
2016-02-14T02:51:44.747Z,-9.17
2016-02-14T02:51:58.044Z,-9.2
2016-02-14T02:52:11.326Z,-9.15
2016-02-14T02:52:24.451Z,-9.16
2016-02-14T02:52:37.841Z,-9.2
2016-02-14T02:52:51.125Z,-9.12
2016-02-14T02:53:04.391Z,-9.17
2016-02-14T02:53:17.922Z,-9.16
2016-02-14T02:53:31.250Z,-9.15
2016-02-14T02:53:44.566Z,-9.09
2016-02-14T02:53:57.847Z,-9.13
2016-02-14T02:54:11.128Z,-9.12
2016-02-14T02:54:24.410Z,-9.13
2016-02-14T02:54:37.722Z,-9.13